Pagrindinis puslapis
METAR-TAF:

METAR-TAF

Oro uostai :

Siris, Iranas

platuma: 25-54-34N, ilguma: 054-32-22E, Aukštis: 13 m

Dabartinis oras

Ataskaita buvo paskelbta 34 minutes, ne 13:00 UTC
Vėjas 10 kt iš Vakarų/Pietvakarių
Temperatūra 23°C
Drėgmė 69%
Slėgis 1013 hPa
Matomumas: 8000 m

METAR: OIBS 281300Z 25010KT 8000 NSC 23/17 Q1013

Laikas: 17:04 (13:34 UTC)


TAF: trūkstamas

Orai ataskaitas ir orų prognozės (METAR, TAF).

turimą stotys yra geltonos ir raudonos taškus žemėlapyje.

Perkelti pele per norėdami pamatyti stoties vardą.

Tada spustelėkite, norėdami matyti oro stebėjimo ir prognozės.

Norėdami pakeisti žemėlapį: spustelėkite ant žalios mygtukų su juodo kryžiaus žemyn,; žalią mygtuką su brūkšneliu, jei norite nutolinti; arba žalių rodyklių gretimoms žemėlapius.


METAR-TAF: